Time;durP1;ratioP1;P1;durP2;ratioP2;P2;SDS_P1;SDS_P2;PMS_P1;PMS_P2;Temp;Humidity;BMP_temperature;BMP_pressure;BME280_temperature;BME280_humidity;BME280_pressure;Samples;Min_cycle;Max_cycle;Signal;HPM_P1;HPM_P2
2021/08/09 00:01:09;;;;;;;5.53;3.17;;;;;;;;;;5013334;28;20525;-80
2021/08/09 00:03:35;;;;;;;5.90;3.00;;;;;;;;;;4995332;28;20449;-81
2021/08/09 00:06:01;;;;;;;5.53;3.40;;;;;;;;;;4999048;28;20472;-80
2021/08/09 00:08:27;;;;;;;3.27;2.40;;;;;;;;;;4999418;28;20429;-78
2021/08/09 00:10:53;;;;;;;4.73;2.80;;;;;;;;;;5017138;28;20487;-80
2021/08/09 00:13:19;;;;;;;7.47;3.33;;;;;;;;;;5016621;28;20413;-79
2021/08/09 00:15:45;;;;;;;7.37;3.33;;;;;;;;;;5016820;28;21020;-79
2021/08/09 00:18:11;;;;;;;4.73;2.80;;;;;;;;;;5016889;28;20410;-80
2021/08/09 00:20:37;;;;;;;5.00;2.87;;;;;;;;;;5017072;28;20401;-79
2021/08/09 00:23:03;;;;;;;5.47;3.67;;;;;;;;;;4999005;28;20429;-79
2021/08/09 00:25:29;;;;;;;6.00;3.00;;;;;;;;;;5016849;28;20441;-81
2021/08/09 00:27:55;;;;;;;6.77;3.17;;;;;;;;;;5016987;28;20488;-81
2021/08/09 00:30:21;;;;;;;4.73;2.90;;;;;;;;;;5016719;28;20898;-79
2021/08/09 00:32:47;;;;;;;4.23;2.70;;;;;;;;;;5016479;28;20844;-80
2021/08/09 00:35:13;;;;;;;5.30;2.73;;;;;;;;;;5016562;28;20556;-79
2021/08/09 00:37:39;;;;;;;5.10;3.20;;;;;;;;;;4998917;28;20973;-80
2021/08/09 00:40:06;;;;;;;6.33;3.20;;;;;;;;;;5016588;28;20485;-78
2021/08/09 00:42:31;;;;;;;9.50;3.27;;;;;;;;;;5016308;28;20857;-80
2021/08/09 00:44:58;;;;;;;6.63;3.50;;;;;;;;;;5016050;28;20436;-79
2021/08/09 00:47:24;;;;;;;4.60;2.60;;;;;;;;;;5016329;28;20409;-79
2021/08/09 00:49:50;;;;;;;6.00;3.20;;;;;;;;;;5016336;28;20401;-78
2021/08/09 00:52:17;;;;;;;3.83;2.67;;;;;;;;;;5016288;28;20402;-78
2021/08/09 00:54:43;;;;;;;5.90;2.57;;;;;;;;;;5015705;28;20543;-80
2021/08/09 00:57:09;;;;;;;11.10;3.30;;;;;;;;;;5016130;28;20479;-79
2021/08/09 00:59:36;;;;;;;5.33;3.10;;;;;;;;;;4998497;28;20418;-79
2021/08/09 01:02:02;;;;;;;10.03;2.80;;;;;;;;;;4999065;28;20433;-79
2021/08/09 01:04:28;;;;;;;5.03;3.30;;;;;;;;;;5015642;28;20472;-80
2021/08/09 01:06:54;;;;;;;4.90;3.00;;;;;;;;;;5015925;28;20705;-79
2021/08/09 01:09:25;;;;;;;2.70;2.50;;;;;;;;;;5015982;28;20420;-78
2021/08/09 01:12:03;;;;;;;4.80;3.07;;;;;;;;;;5015952;28;20457;-79
2021/08/09 01:14:37;;;;;;;6.63;2.80;;;;;;;;;;5015476;28;20500;-79
2021/08/09 01:17:03;;;;;;;4.80;2.90;;;;;;;;;;5015199;28;20461;-79
2021/08/09 01:19:51;;;;;;;6.23;3.07;;;;;;;;;;5015864;28;20421;-79
2021/08/09 01:22:34;;;;;;;4.73;3.00;;;;;;;;;;4998130;28;20484;-80
2021/08/09 01:25:13;;;;;;;8.27;3.17;;;;;;;;;;5015252;28;20453;-80
2021/08/09 01:27:41;;;;;;;4.43;2.67;;;;;;;;;;4998193;28;20449;-79
2021/08/09 01:30:08;;;;;;;5.17;3.10;;;;;;;;;;4997968;28;20429;-79
2021/08/09 01:32:39;;;;;;;4.70;2.73;;;;;;;;;;5015370;28;20412;-78
2021/08/09 01:35:07;;;;;;;3.30;2.90;;;;;;;;;;5015018;28;20433;-80
2021/08/09 01:37:35;;;;;;;4.50;2.97;;;;;;;;;;5015334;28;20520;-80
2021/08/09 01:40:01;;;;;;;8.63;3.50;;;;;;;;;;5015618;28;20448;-79
2021/08/09 01:42:27;;;;;;;4.57;2.80;;;;;;;;;;4997787;28;20417;-79
2021/08/09 01:44:53;;;;;;;4.50;2.93;;;;;;;;;;5014878;28;20856;-78
2021/08/09 01:47:19;;;;;;;4.30;2.90;;;;;;;;;;5015113;28;20417;-78
2021/08/09 01:49:46;;;;;;;7.23;3.03;;;;;;;;;;5015222;28;20925;-78
2021/08/09 01:52:13;;;;;;;11.33;3.10;;;;;;;;;;5015197;28;20413;-78
2021/08/09 01:54:39;;;;;;;5.63;2.90;;;;;;;;;;5014845;28;20437;-80
2021/08/09 01:57:06;;;;;;;6.60;3.43;;;;;;;;;;5014808;28;20548;-80
2021/08/09 01:59:32;;;;;;;6.63;3.47;;;;;;;;;;5014890;28;20642;-79
2021/08/09 02:01:58;;;;;;;6.37;3.00;;;;;;;;;;5015102;28;20425;-79
2021/08/09 02:04:24;;;;;;;6.23;2.80;;;;;;;;;;5014590;28;20426;-80
2021/08/09 02:06:50;;;;;;;9.43;3.30;;;;;;;;;;5014933;28;20418;-79
2021/08/09 02:09:16;;;;;;;4.10;2.70;;;;;;;;;;5014923;28;20949;-79
2021/08/09 02:12:02;;;;;;;10.03;3.33;;;;;;;;;;5015029;28;20414;-77
2021/08/09 02:14:31;;;;;;;6.60;2.70;;;;;;;;;;5014470;28;20406;-79
2021/08/09 02:17:04;;;;;;;5.90;3.20;;;;;;;;;;5014921;28;20469;-78
2021/08/09 02:19:40;;;;;;;2.80;2.57;;;;;;;;;;4996970;28;20449;-78
2021/08/09 02:22:09;;;;;;;5.40;2.90;;;;;;;;;;5014411;28;20418;-78
2021/08/09 02:24:46;;;;;;;7.83;3.60;;;;;;;;;;5014163;28;20434;-80
2021/08/09 02:27:13;;;;;;;3.17;2.60;;;;;;;;;;5014472;28;20445;-81
2021/08/09 02:29:41;;;;;;;7.80;2.90;;;;;;;;;;5013680;28;20501;-78
2021/08/09 02:32:08;;;;;;;14.17;4.20;;;;;;;;;;5014670;28;20384;-80
2021/08/09 02:34:35;;;;;;;3.93;2.93;;;;;;;;;;5013998;28;20434;-80
2021/08/09 02:37:02;;;;;;;3.50;3.20;;;;;;;;;;5014058;28;20469;-80
2021/08/09 02:39:29;;;;;;;3.53;2.50;;;;;;;;;;4996755;28;20428;-80
2021/08/09 02:41:55;;;;;;;7.10;3.13;;;;;;;;;;4996942;28;20421;-78
2021/08/09 02:44:21;;;;;;;3.87;3.10;;;;;;;;;;5013913;28;20413;-80
2021/08/09 02:46:47;;;;;;;4.97;2.73;;;;;;;;;;5014232;28;20508;-79
2021/08/09 02:49:13;;;;;;;3.90;2.77;;;;;;;;;;5014100;28;20417;-80
2021/08/09 02:51:39;;;;;;;8.70;3.60;;;;;;;;;;5013956;28;20445;-80
2021/08/09 02:54:06;;;;;;;9.63;3.07;;;;;;;;;;5013730;28;20488;-79
2021/08/09 02:56:33;;;;;;;4.53;3.70;;;;;;;;;;5013795;28;20938;-79
2021/08/09 02:58:59;;;;;;;7.83;2.53;;;;;;;;;;5013896;28;20899;-79
2021/08/09 03:01:27;;;;;;;3.90;2.90;;;;;;;;;;5013845;28;20418;-79
2021/08/09 03:03:55;;;;;;;4.07;2.93;;;;;;;;;;5013688;28;20740;-79
2021/08/09 03:06:22;;;;;;;5.10;3.30;;;;;;;;;;5013943;28;20441;-79
2021/08/09 03:08:48;;;;;;;5.83;3.00;;;;;;;;;;5014115;28;20421;-78
2021/08/09 03:11:15;;;;;;;3.40;2.80;;;;;;;;;;4996222;28;20791;-80
2021/08/09 03:13:45;;;;;;;6.67;3.03;;;;;;;;;;4995917;28;20418;-78
2021/08/09 03:16:11;;;;;;;4.50;3.07;;;;;;;;;;5013903;28;20461;-79
2021/08/09 03:18:37;;;;;;;7.27;3.10;;;;;;;;;;5013636;28;20445;-79
2021/08/09 03:21:03;;;;;;;5.77;2.57;;;;;;;;;;5013749;28;20405;-78
2021/08/09 03:23:29;;;;;;;4.50;2.97;;;;;;;;;;5013319;28;20417;-78
2021/08/09 03:25:55;;;;;;;7.87;3.13;;;;;;;;;;5013510;28;20993;-79
2021/08/09 03:28:21;;;;;;;7.47;2.77;;;;;;;;;;5013536;28;20413;-79
2021/08/09 03:30:47;;;;;;;6.43;2.83;;;;;;;;;;5013660;28;20493;-78
2021/08/09 03:33:13;;;;;;;7.30;3.60;;;;;;;;;;5013160;28;20855;-77
2021/08/09 03:35:39;;;;;;;4.43;3.00;;;;;;;;;;5013129;28;20528;-80
2021/08/09 03:38:05;;;;;;;4.47;3.07;;;;;;;;;;5013403;28;20415;-81
2021/08/09 03:40:31;;;;;;;7.33;4.30;;;;;;;;;;5013106;28;20402;-80
2021/08/09 03:42:57;;;;;;;5.70;3.13;;;;;;;;;;5013015;28;20436;-81
2021/08/09 03:45:23;;;;;;;3.40;2.87;;;;;;;;;;5013451;28;20454;-81
2021/08/09 03:47:49;;;;;;;4.00;3.40;;;;;;;;;;5013352;28;20594;-79
2021/08/09 03:50:15;;;;;;;4.80;3.13;;;;;;;;;;5013267;28;20413;-79
2021/08/09 03:52:52;;;;;;;5.10;2.80;;;;;;;;;;5013211;28;20448;-79
2021/08/09 03:55:18;;;;;;;6.83;2.53;;;;;;;;;;5013094;28;20469;-81
2021/08/09 03:57:44;;;;;;;5.40;3.03;;;;;;;;;;5013198;28;20421;-79
2021/08/09 04:00:11;;;;;;;9.40;2.60;;;;;;;;;;5012861;28;20521;-78
2021/08/09 04:02:38;;;;;;;3.83;2.97;;;;;;;;;;5012849;28;20421;-80
2021/08/09 04:05:10;;;;;;;6.30;2.93;;;;;;;;;;4995303;28;20437;-81
2021/08/09 04:07:39;;;;;;;4.33;3.13;;;;;;;;;;5013122;28;20422;-81
2021/08/09 04:10:06;;;;;;;3.30;2.63;;;;;;;;;;5013311;28;20406;-81
2021/08/09 04:12:32;;;;;;;7.07;2.97;;;;;;;;;;5013001;28;20437;-81
2021/08/09 04:14:58;;;;;;;3.27;2.40;;;;;;;;;;5012541;28;20483;-79
2021/08/09 04:17:24;;;;;;;5.17;2.67;;;;;;;;;;5012109;28;20437;-81
2021/08/09 04:19:50;;;;;;;4.33;2.40;;;;;;;;;;5011790;28;20425;-81
2021/08/09 04:22:16;;;;;;;7.37;2.80;;;;;;;;;;5012729;28;20422;-81
2021/08/09 04:24:43;;;;;;;3.43;2.33;;;;;;;;;;5012660;28;20881;-79
2021/08/09 04:27:09;;;;;;;4.50;3.30;;;;;;;;;;5012644;28;20410;-79
2021/08/09 04:29:35;;;;;;;6.40;3.00;;;;;;;;;;5012917;28;20418;-81
2021/08/09 04:32:01;;;;;;;11.53;3.50;;;;;;;;;;4995277;28;20465;-79
2021/08/09 04:34:27;;;;;;;13.70;4.00;;;;;;;;;;5012391;28;20465;-80
2021/08/09 04:36:53;;;;;;;4.53;2.90;;;;;;;;;;4995141;28;20480;-81
2021/08/09 04:39:19;;;;;;;4.90;2.40;;;;;;;;;;5012940;28;20410;-79
2021/08/09 04:41:45;;;;;;;5.23;2.50;;;;;;;;;;5012927;28;20413;-80
2021/08/09 04:44:13;;;;;;;5.80;3.20;;;;;;;;;;5012571;28;20418;-80
2021/08/09 04:46:39;;;;;;;3.67;2.70;;;;;;;;;;5012784;28;20753;-80
2021/08/09 04:49:05;;;;;;;6.57;2.83;;;;;;;;;;5012818;28;20499;-81
2021/08/09 04:51:31;;;;;;;4.73;2.60;;;;;;;;;;5013363;28;20416;-78
2021/08/09 04:53:57;;;;;;;4.97;2.70;;;;;;;;;;5015925;28;20414;-79
2021/08/09 04:56:23;;;;;;;3.57;2.50;;;;;;;;;;5015843;28;20501;-81
2021/08/09 04:58:49;;;;;;;5.20;2.60;;;;;;;;;;5016126;28;20891;-81
2021/08/09 05:01:15;;;;;;;4.53;2.80;;;;;;;;;;5015840;28;20415;-78
2021/08/09 05:03:41;;;;;;;5.20;2.70;;;;;;;;;;5015780;28;20453;-79
2021/08/09 05:06:08;;;;;;;7.60;2.70;;;;;;;;;;5016127;28;20445;-82
2021/08/09 05:08:34;;;;;;;6.47;2.83;;;;;;;;;;5015871;28;20772;-79
2021/08/09 05:11:00;;;;;;;2.47;1.90;;;;;;;;;;5016152;28;20818;-79
2021/08/09 05:13:26;;;;;;;4.80;3.13;;;;;;;;;;5015675;28;20414;-80
2021/08/09 05:15:52;;;;;;;6.43;2.67;;;;;;;;;;5015724;28;21048;-82
2021/08/09 05:18:18;;;;;;;5.17;2.53;;;;;;;;;;5015919;28;20410;-80
2021/08/09 05:20:46;;;;;;;2.40;1.97;;;;;;;;;;5015397;28;20428;-78
2021/08/09 05:23:14;;;;;;;7.60;2.47;;;;;;;;;;5015396;28;20914;-79
2021/08/09 05:25:40;;;;;;;6.00;2.60;;;;;;;;;;5015848;28;20560;-80
2021/08/09 05:28:06;;;;;;;2.57;2.13;;;;;;;;;;5015742;28;20449;-81
2021/08/09 05:30:32;;;;;;;8.13;2.70;;;;;;;;;;5015788;28;20385;-82
2021/08/09 05:32:59;;;;;;;5.53;2.53;;;;;;;;;;5015205;28;20424;-79
2021/08/09 05:35:25;;;;;;;8.37;2.23;;;;;;;;;;5015419;28;20432;-78
2021/08/09 05:37:51;;;;;;;7.53;2.70;;;;;;;;;;5015519;28;20418;-80
2021/08/09 05:40:17;;;;;;;4.30;2.10;;;;;;;;;;5015376;28;20425;-81
2021/08/09 05:42:48;;;;;;;2.43;2.13;;;;;;;;;;4997874;28;20410;-80
2021/08/09 05:45:14;;;;;;;4.30;2.47;;;;;;;;;;5015195;28;20820;-81
2021/08/09 05:47:40;;;;;;;2.70;1.87;;;;;;;;;;5015297;28;20412;-82
2021/08/09 05:50:06;;;;;;;6.50;2.57;;;;;;;;;;5015400;28;20410;-79
2021/08/09 05:52:32;;;;;;;5.03;2.20;;;;;;;;;;5015091;28;20410;-78
2021/08/09 05:55:03;;;;;;;3.87;2.00;;;;;;;;;;5014618;28;20436;-80
2021/08/09 05:57:29;;;;;;;4.23;2.10;;;;;;;;;;5015171;28;20398;-81
2021/08/09 05:59:55;;;;;;;4.07;2.00;;;;;;;;;;5015062;28;20368;-79
2021/08/09 06:02:21;;;;;;;5.87;2.10;;;;;;;;;;5014811;28;20439;-82
2021/08/09 06:04:47;;;;;;;3.30;2.27;;;;;;;;;;5014686;28;20489;-82
2021/08/09 06:07:17;;;;;;;3.70;2.50;;;;;;;;;;4997405;28;20381;-83
2021/08/09 06:09:43;;;;;;;2.60;2.07;;;;;;;;;;5014873;28;20409;-78
2021/08/09 06:12:09;;;;;;;9.10;3.17;;;;;;;;;;5014996;28;20850;-80
2021/08/09 06:14:36;;;;;;;6.20;2.77;;;;;;;;;;5014620;28;20430;-80
2021/08/09 06:17:02;;;;;;;8.07;2.23;;;;;;;;;;5014841;28;20953;-80
2021/08/09 06:19:28;;;;;;;3.63;2.37;;;;;;;;;;5014911;28;20417;-81
2021/08/09 06:21:54;;;;;;;3.60;1.80;;;;;;;;;;4997175;28;20448;-82
2021/08/09 06:24:21;;;;;;;3.10;2.20;;;;;;;;;;5014296;28;20414;-81
2021/08/09 06:26:47;;;;;;;4.37;2.37;;;;;;;;;;5014705;28;20413;-82
2021/08/09 06:29:13;;;;;;;3.73;1.63;;;;;;;;;;5014436;28;20418;-81
2021/08/09 06:31:39;;;;;;;3.77;2.60;;;;;;;;;;5014511;28;20826;-80
2021/08/09 06:34:05;;;;;;;4.23;2.37;;;;;;;;;;5014142;28;20422;-80
2021/08/09 06:36:31;;;;;;;3.40;1.80;;;;;;;;;;5014092;28;20531;-81
2021/08/09 06:38:57;;;;;;;2.30;1.87;;;;;;;;;;5014385;28;20406;-81
2021/08/09 06:41:31;;;;;;;5.87;1.87;;;;;;;;;;5014345;28;20893;-79
2021/08/09 06:43:57;;;;;;;3.00;2.47;;;;;;;;;;4996308;28;20430;-80
2021/08/09 06:46:23;;;;;;;4.23;2.20;;;;;;;;;;5014126;28;20807;-80
2021/08/09 06:48:49;;;;;;;5.00;2.10;;;;;;;;;;5014159;28;20422;-82
2021/08/09 06:51:15;;;;;;;7.33;1.80;;;;;;;;;;5014111;28;20418;-81
2021/08/09 06:53:41;;;;;;;4.83;2.00;;;;;;;;;;5013732;28;20420;-80
2021/08/09 06:56:07;;;;;;;4.70;2.40;;;;;;;;;;5013738;28;20466;-80
2021/08/09 06:58:33;;;;;;;5.13;1.97;;;;;;;;;;5014000;28;20413;-79
2021/08/09 07:00:59;;;;;;;4.53;1.80;;;;;;;;;;5013936;28;20380;-81
2021/08/09 07:03:25;;;;;;;2.70;1.60;;;;;;;;;;5013508;28;20409;-83
2021/08/09 07:05:51;;;;;;;6.00;2.53;;;;;;;;;;5013775;28;20417;-79
2021/08/09 07:08:17;;;;;;;2.63;2.30;;;;;;;;;;5013797;28;20414;-79
2021/08/09 07:10:44;;;;;;;3.83;1.60;;;;;;;;;;5013633;28;20414;-81
2021/08/09 07:13:11;;;;;;;2.77;1.40;;;;;;;;;;5013457;28;20420;-81
2021/08/09 07:15:37;;;;;;;3.20;1.60;;;;;;;;;;5013076;28;20454;-80
2021/08/09 07:18:03;;;;;;;2.10;1.63;;;;;;;;;;5013799;28;20780;-80
2021/08/09 07:20:29;;;;;;;3.30;1.73;;;;;;;;;;5013604;28;20384;-78
2021/08/09 07:22:54;;;;;;;2.50;1.57;;;;;;;;;;5013370;28;20410;-79
2021/08/09 07:25:20;;;;;;;2.90;1.70;;;;;;;;;;5013449;28;20428;-80
2021/08/09 07:27:47;;;;;;;6.17;2.10;;;;;;;;;;5013488;28;20797;-79
2021/08/09 07:30:14;;;;;;;8.77;2.60;;;;;;;;;;5013847;28;20402;-80
2021/08/09 07:32:40;;;;;;;4.30;1.80;;;;;;;;;;4995816;28;20407;-80
2021/08/09 07:35:07;;;;;;;3.77;1.53;;;;;;;;;;5013258;28;20520;-80
2021/08/09 07:37:33;;;;;;;2.67;1.60;;;;;;;;;;5013441;28;20557;-80
2021/08/09 07:39:59;;;;;;;2.40;1.80;;;;;;;;;;4995681;28;20389;-80
2021/08/09 07:42:25;;;;;;;2.90;1.80;;;;;;;;;;5013436;28;20474;-80
2021/08/09 07:44:55;;;;;;;2.87;1.43;;;;;;;;;;5013113;28;20441;-79
2021/08/09 07:47:21;;;;;;;3.13;1.50;;;;;;;;;;5013342;28;20815;-79
2021/08/09 07:49:47;;;;;;;3.40;1.73;;;;;;;;;;5013217;28;20392;-78
2021/08/09 07:52:13;;;;;;;4.93;1.83;;;;;;;;;;5013216;28;20417;-80
2021/08/09 07:54:39;;;;;;;3.53;1.70;;;;;;;;;;5012995;28;20433;-79
2021/08/09 07:57:06;;;;;;;2.33;1.57;;;;;;;;;;5013244;28;20556;-80
2021/08/09 07:59:32;;;;;;;4.60;2.23;;;;;;;;;;5013216;28;20427;-79
2021/08/09 08:02:01;;;;;;;3.80;1.60;;;;;;;;;;5013084;28;20416;-80
2021/08/09 08:04:27;;;;;;;4.03;1.40;;;;;;;;;;5012815;28;20389;-79
2021/08/09 08:06:53;;;;;;;2.03;1.27;;;;;;;;;;5013171;28;20417;-78
2021/08/09 08:09:22;;;;;;;3.40;1.50;;;;;;;;;;5013050;28;20407;-80
2021/08/09 08:11:48;;;;;;;4.80;1.17;;;;;;;;;;5012904;28;20435;-79
2021/08/09 08:14:14;;;;;;;1.70;1.10;;;;;;;;;;5012613;28;20475;-80
2021/08/09 08:16:40;;;;;;;4.50;1.33;;;;;;;;;;5013284;28;20489;-78
2021/08/09 08:19:06;;;;;;;5.83;1.50;;;;;;;;;;5013050;28;20789;-79
2021/08/09 08:21:33;;;;;;;5.33;1.60;;;;;;;;;;5013359;28;20414;-78
2021/08/09 08:23:59;;;;;;;4.80;1.83;;;;;;;;;;5012756;28;20385;-78
2021/08/09 08:26:25;;;;;;;3.47;1.63;;;;;;;;;;5013551;28;20455;-78
2021/08/09 08:28:51;;;;;;;3.57;1.33;;;;;;;;;;5016943;28;20399;-80
2021/08/09 08:31:17;;;;;;;2.70;1.23;;;;;;;;;;5016719;28;20426;-80
2021/08/09 08:33:43;;;;;;;3.03;1.50;;;;;;;;;;5016501;28;20413;-78
2021/08/09 08:36:09;;;;;;;3.60;1.80;;;;;;;;;;5016394;28;20547;-79
2021/08/09 08:38:36;;;;;;;2.20;1.30;;;;;;;;;;5016657;28;20848;-79
2021/08/09 08:41:05;;;;;;;3.33;1.87;;;;;;;;;;4998983;28;20409;-81
2021/08/09 08:43:31;;;;;;;4.57;1.50;;;;;;;;;;5016168;28;20409;-80
2021/08/09 08:45:59;;;;;;;2.97;1.53;;;;;;;;;;5016588;28;20451;-78
2021/08/09 08:48:26;;;;;;;6.10;1.20;;;;;;;;;;5016495;28;20392;-78
2021/08/09 08:50:52;;;;;;;6.00;2.23;;;;;;;;;;5016589;28;20396;-79
2021/08/09 08:53:18;;;;;;;2.03;1.30;;;;;;;;;;5016068;28;20760;-79
2021/08/09 08:55:44;;;;;;;2.43;1.50;;;;;;;;;;5016301;28;20496;-79
2021/08/09 08:58:10;;;;;;;2.50;1.23;;;;;;;;;;5016307;28;20806;-78
2021/08/09 09:00:37;;;;;;;1.57;1.40;;;;;;;;;;4998614;28;20417;-80
2021/08/09 09:03:15;;;;;;;2.10;1.13;;;;;;;;;;5015819;28;20485;-79
2021/08/09 09:05:41;;;;;;;6.20;1.60;;;;;;;;;;5015994;28;20437;-80
2021/08/09 09:08:07;;;;;;;4.30;1.53;;;;;;;;;;5016014;28;20418;-79
2021/08/09 09:10:37;;;;;;;3.53;1.40;;;;;;;;;;5015955;28;20504;-78
2021/08/09 09:13:10;;;;;;;3.03;1.03;;;;;;;;;;5015652;28;20391;-79
2021/08/09 09:15:54;;;;;;;4.40;1.70;;;;;;;;;;5015848;28;20808;-78
2021/08/09 09:18:20;;;;;;;2.13;1.20;;;;;;;;;;5016101;28;20402;-79
2021/08/09 09:20:46;;;;;;;5.23;1.57;;;;;;;;;;5015941;28;20402;-79
2021/08/09 09:23:17;;;;;;;2.07;1.30;;;;;;;;;;5015632;28;20509;-79
2021/08/09 09:25:44;;;;;;;4.00;1.30;;;;;;;;;;5015733;28;20443;-79
2021/08/09 09:28:23;;;;;;;3.60;1.30;;;;;;;;;;5015869;28;20721;-80
2021/08/09 09:30:50;;;;;;;3.87;1.50;;;;;;;;;;5015590;28;20922;-78
2021/08/09 09:33:16;;;;;;;3.83;1.30;;;;;;;;;;5015428;28;20385;-77
2021/08/09 09:35:42;;;;;;;4.47;1.30;;;;;;;;;;5015578;28;21024;-78
2021/08/09 09:38:08;;;;;;;3.03;1.40;;;;;;;;;;5015199;28;20396;-79
2021/08/09 09:40:41;;;;;;;3.07;1.17;;;;;;;;;;5015570;28;20423;-79
2021/08/09 09:43:22;;;;;;;4.33;1.40;;;;;;;;;;5015298;28;20403;-79
2021/08/09 09:45:49;;;;;;;2.20;1.13;;;;;;;;;;5015515;28;20433;-79
2021/08/09 09:48:15;;;;;;;2.47;1.20;;;;;;;;;;4997891;28;20424;-79
2021/08/09 09:50:42;;;;;;;4.70;1.37;;;;;;;;;;5015343;28;20388;-80
2021/08/09 09:53:16;;;;;;;2.73;1.20;;;;;;;;;;4997659;28;20414;-79
2021/08/09 09:55:42;;;;;;;3.50;1.30;;;;;;;;;;5015068;28;20806;-79
2021/08/09 09:58:09;;;;;;;2.97;1.10;;;;;;;;;;5015206;28;20926;-79
2021/08/09 10:00:35;;;;;;;2.70;1.03;;;;;;;;;;5015165;28;20399;-79
2021/08/09 10:03:01;;;;;;;7.93;1.40;;;;;;;;;;5014697;28;20496;-78
2021/08/09 10:05:28;;;;;;;4.30;1.30;;;;;;;;;;5014984;28;20426;-78
2021/08/09 10:07:55;;;;;;;2.90;1.20;;;;;;;;;;5015013;28;20418;-79
2021/08/09 10:10:25;;;;;;;3.93;1.33;;;;;;;;;;5014892;28;20501;-80
2021/08/09 10:12:51;;;;;;;3.93;1.00;;;;;;;;;;5014585;28;20409;-78
2021/08/09 10:15:19;;;;;;;4.13;1.13;;;;;;;;;;5014605;28;20434;-78
2021/08/09 10:17:46;;;;;;;1.27;1.10;;;;;;;;;;5014851;28;20908;-78
2021/08/09 10:20:13;;;;;;;2.03;1.20;;;;;;;;;;5014760;28;20844;-79
2021/08/09 10:22:39;;;;;;;4.00;1.60;;;;;;;;;;4997388;28;20418;-79
2021/08/09 10:25:06;;;;;;;1.97;1.20;;;;;;;;;;5014268;28;20431;-78
2021/08/09 10:28:04;;;;;;;2.30;1.30;;;;;;;;;;5014664;28;20497;-78
2021/08/09 10:30:34;;;;;;;3.93;1.80;;;;;;;;;;4971535;28;20817;-78
2021/08/09 10:33:01;;;;;;;2.13;1.00;;;;;;;;;;5014163;28;20413;-79
2021/08/09 10:35:39;;;;;;;2.57;1.10;;;;;;;;;;5014140;28;20434;-78
2021/08/09 10:38:13;;;;;;;6.63;1.40;;;;;;;;;;4997072;28;20520;-79
2021/08/09 10:40:39;;;;;;;3.83;1.20;;;;;;;;;;5014531;28;20448;-79
2021/08/09 10:43:05;;;;;;;2.93;1.10;;;;;;;;;;4996334;28;20430;-78
2021/08/09 10:45:45;;;;;;;2.27;1.20;;;;;;;;;;5014300;28;20545;-78
2021/08/09 10:48:12;;;;;;;3.10;1.33;;;;;;;;;;5014286;28;20468;-78
2021/08/09 10:50:41;;;;;;;5.73;1.67;;;;;;;;;;5013340;28;20501;-80
2021/08/09 10:53:25;;;;;;;3.50;1.23;;;;;;;;;;5013787;28;20896;-78
2021/08/09 10:55:55;;;;;;;2.43;1.33;;;;;;;;;;5014148;28;20924;-79
2021/08/09 10:58:39;;;;;;;2.30;0.90;;;;;;;;;;5014094;28;20420;-79
2021/08/09 11:01:05;;;;;;;1.97;0.90;;;;;;;;;;5014010;28;20402;-79
2021/08/09 11:03:31;;;;;;;2.37;1.40;;;;;;;;;;4996346;28;20508;-78
2021/08/09 11:05:57;;;;;;;4.00;1.20;;;;;;;;;;5014096;28;20465;-78
2021/08/09 11:08:23;;;;;;;2.10;1.37;;;;;;;;;;5013892;28;20441;-78
2021/08/09 11:10:55;;;;;;;2.30;1.50;;;;;;;;;;5013963;28;20918;-78
2021/08/09 11:13:22;;;;;;;3.30;1.17;;;;;;;;;;5013436;28;20760;-79
2021/08/09 11:16:01;;;;;;;4.10;1.10;;;;;;;;;;5013896;28;20444;-80
2021/08/09 11:18:28;;;;;;;1.40;0.97;;;;;;;;;;5014063;28;20384;-78
2021/08/09 11:21:02;;;;;;;2.47;1.10;;;;;;;;;;5013924;28;20414;-79
2021/08/09 11:23:34;;;;;;;2.73;1.20;;;;;;;;;;5013410;28;20420;-80
2021/08/09 11:26:00;;;;;;;1.67;0.83;;;;;;;;;;5013763;28;20429;-79
2021/08/09 11:28:26;;;;;;;1.70;1.20;;;;;;;;;;5013757;28;20969;-77
2021/08/09 11:30:55;;;;;;;1.97;1.13;;;;;;;;;;5013697;28;20453;-79
2021/08/09 11:33:30;;;;;;;1.80;1.10;;;;;;;;;;5013320;28;20418;-79
2021/08/09 11:36:06;;;;;;;2.63;0.90;;;;;;;;;;5013293;28;20837;-79
2021/08/09 11:38:41;;;;;;;1.80;1.03;;;;;;;;;;5013634;28;20406;-78
2021/08/09 11:41:10;;;;;;;1.73;1.20;;;;;;;;;;5013752;28;20455;-79
2021/08/09 11:43:36;;;;;;;3.90;1.10;;;;;;;;;;5013035;28;20409;-80
2021/08/09 11:46:04;;;;;;;2.23;1.00;;;;;;;;;;5013718;28;20425;-78
2021/08/09 11:48:31;;;;;;;1.83;1.00;;;;;;;;;;5013722;28;20438;-79
2021/08/09 11:51:01;;;;;;;3.80;1.17;;;;;;;;;;4995685;28;20994;-78
2021/08/09 11:53:27;;;;;;;2.50;0.93;;;;;;;;;;4995521;28;20414;-79
2021/08/09 11:56:15;;;;;;;2.40;1.03;;;;;;;;;;5013145;28;20545;-79
2021/08/09 11:58:42;;;;;;;3.23;1.20;;;;;;;;;;5013313;28;20406;-78
2021/08/09 12:01:08;;;;;;;3.33;1.23;;;;;;;;;;5015064;28;20406;-78
2021/08/09 12:03:34;;;;;;;2.93;1.20;;;;;;;;;;5016975;28;20517;-79
2021/08/09 12:06:19;;;;;;;2.07;1.10;;;;;;;;;;5017134;28;20487;-79
2021/08/09 12:08:52;;;;;;;2.20;1.10;;;;;;;;;;5017225;28;20392;-78
2021/08/09 12:11:18;;;;;;;1.67;1.30;;;;;;;;;;4999671;28;20912;-80
2021/08/09 12:13:44;;;;;;;3.07;1.40;;;;;;;;;;4983079;28;20426;-80
2021/08/09 12:16:14;;;;;;;1.80;1.40;;;;;;;;;;5017024;28;20825;-79
2021/08/09 12:18:51;;;;;;;1.87;1.00;;;;;;;;;;5017183;28;20413;-78
2021/08/09 12:21:17;;;;;;;3.40;1.10;;;;;;;;;;4999379;28;20933;-79
2021/08/09 12:24:10;;;;;;;2.00;1.40;;;;;;;;;;4999036;28;20918;-78
2021/08/09 12:26:36;;;;;;;1.63;0.83;;;;;;;;;;5013225;28;20583;-78
2021/08/09 12:29:05;;;;;;;2.53;0.90;;;;;;;;;;5017270;28;20416;-78
2021/08/09 12:31:35;;;;;;;1.83;0.90;;;;;;;;;;5016977;28;20973;-78
2021/08/09 12:34:02;;;;;;;2.37;1.10;;;;;;;;;;4998703;28;20951;-79
2021/08/09 12:36:28;;;;;;;2.73;1.27;;;;;;;;;;5016661;28;20454;-79
2021/08/09 12:38:54;;;;;;;5.20;1.00;;;;;;;;;;5016795;28;20524;-79
2021/08/09 12:41:27;;;;;;;1.50;0.90;;;;;;;;;;5016706;28;20870;-78
2021/08/09 12:43:53;;;;;;;2.20;1.00;;;;;;;;;;5016228;28;20389;-78
2021/08/09 12:46:20;;;;;;;2.60;1.13;;;;;;;;;;5016237;28;20453;-78
2021/08/09 12:48:47;;;;;;;3.10;1.13;;;;;;;;;;5016289;28;20417;-77
2021/08/09 12:51:13;;;;;;;1.93;1.20;;;;;;;;;;5016355;28;20403;-78
2021/08/09 12:53:39;;;;;;;4.00;1.20;;;;;;;;;;5015971;28;20479;-78
2021/08/09 12:56:05;;;;;;;2.70;1.47;;;;;;;;;;5016324;28;20801;-78
2021/08/09 12:58:31;;;;;;;2.40;1.03;;;;;;;;;;5016147;28;20492;-79
2021/08/09 13:00:57;;;;;;;3.80;1.47;;;;;;;;;;5016325;28;20413;-79
2021/08/09 13:03:23;;;;;;;2.83;1.37;;;;;;;;;;5016001;28;20418;-79
2021/08/09 13:05:49;;;;;;;3.67;1.00;;;;;;;;;;5016112;28;20458;-78
2021/08/09 13:08:15;;;;;;;2.73;1.30;;;;;;;;;;5016031;28;20491;-78
2021/08/09 13:10:41;;;;;;;4.10;1.43;;;;;;;;;;5016080;28;20873;-78
2021/08/09 13:13:07;;;;;;;3.23;1.23;;;;;;;;;;5014763;28;20391;-78
2021/08/09 13:15:34;;;;;;;3.87;1.93;;;;;;;;;;5015832;28;20781;-80
2021/08/09 13:18:00;;;;;;;3.43;1.60;;;;;;;;;;5015985;28;20380;-82
2021/08/09 13:20:26;;;;;;;1.50;1.23;;;;;;;;;;5015765;28;20410;-80
2021/08/09 13:22:52;;;;;;;1.97;1.10;;;;;;;;;;5015681;28;20410;-80
2021/08/09 13:25:18;;;;;;;3.53;1.57;;;;;;;;;;5015767;28;20432;-82
2021/08/09 13:27:44;;;;;;;1.83;1.27;;;;;;;;;;5015762;28;20421;-80
2021/08/09 13:30:10;;;;;;;5.60;1.80;;;;;;;;;;5015683;28;20418;-81
2021/08/09 13:32:38;;;;;;;2.83;1.40;;;;;;;;;;5015583;28;20886;-81
2021/08/09 13:35:04;;;;;;;2.40;1.40;;;;;;;;;;5015561;28;20438;-81
2021/08/09 13:37:31;;;;;;;5.50;1.93;;;;;;;;;;5015468;28;20473;-82
2021/08/09 13:40:00;;;;;;;5.13;1.47;;;;;;;;;;4998216;28;20488;-79
2021/08/09 13:42:26;;;;;;;3.27;1.23;;;;;;;;;;5015447;28;20385;-81
2021/08/09 13:44:52;;;;;;;2.50;1.30;;;;;;;;;;5015331;28;20744;-80
2021/08/09 13:47:18;;;;;;;3.07;2.00;;;;;;;;;;5016025;28;20380;-80
2021/08/09 13:49:44;;;;;;;3.27;1.40;;;;;;;;;;5015399;28;20413;-81
2021/08/09 13:52:11;;;;;;;1.83;1.43;;;;;;;;;;5015431;28;20496;-81
2021/08/09 13:54:37;;;;;;;3.03;1.20;;;;;;;;;;5014980;28;20430;-81
2021/08/09 13:57:03;;;;;;;4.37;1.90;;;;;;;;;;4997862;28;20469;-81
2021/08/09 13:59:29;;;;;;;1.53;1.13;;;;;;;;;;5015145;28;20422;-79
2021/08/09 14:01:55;;;;;;;2.20;1.20;;;;;;;;;;5015299;28;20418;-79
2021/08/09 14:04:21;;;;;;;2.20;1.13;;;;;;;;;;5015165;28;20920;-79
2021/08/09 14:06:47;;;;;;;2.00;1.23;;;;;;;;;;5015371;28;20385;-80
2021/08/09 14:09:13;;;;;;;2.93;1.33;;;;;;;;;;5015896;28;20425;-78
2021/08/09 14:11:39;;;;;;;6.00;1.33;;;;;;;;;;5015169;28;20381;-79
2021/08/09 14:14:05;;;;;;;4.80;1.60;;;;;;;;;;5014599;28;20483;-78
2021/08/09 14:16:31;;;;;;;1.83;1.00;;;;;;;;;;5014681;28;20485;-80
2021/08/09 14:18:57;;;;;;;2.50;1.17;;;;;;;;;;5014777;28;20907;-78
2021/08/09 14:21:23;;;;;;;1.30;1.00;;;;;;;;;;5014375;28;20926;-78
2021/08/09 14:23:49;;;;;;;1.90;1.20;;;;;;;;;;5014314;28;20388;-78
2021/08/09 14:26:15;;;;;;;1.20;1.00;;;;;;;;;;5014748;28;20760;-78
2021/08/09 14:28:41;;;;;;;2.93;1.47;;;;;;;;;;5014657;28;20404;-78
2021/08/09 14:31:07;;;;;;;4.47;1.63;;;;;;;;;;5014552;28;20417;-78
2021/08/09 14:33:34;;;;;;;3.07;1.23;;;;;;;;;;5014225;28;20422;-79
2021/08/09 14:36:00;;;;;;;4.40;1.40;;;;;;;;;;5014284;28;20553;-79
2021/08/09 14:38:26;;;;;;;2.97;1.30;;;;;;;;;;5014862;28;20925;-79
2021/08/09 14:40:52;;;;;;;1.70;1.07;;;;;;;;;;5014616;28;20904;-78
2021/08/09 14:43:19;;;;;;;2.13;1.13;;;;;;;;;;5014093;28;20533;-78
2021/08/09 14:45:45;;;;;;;2.60;1.40;;;;;;;;;;5014331;28;20419;-79